sensor_id;sensor_type;location;lat;lon;timestamp;P1;durP1;ratioP1;P2;durP2;ratioP2
2289;SDS011;1153;47.986;7.898;2023-02-22T00:01:41;1.10;;;1.00;;
2289;SDS011;1153;47.986;7.898;2023-02-22T00:04:14;0.90;;;0.60;;
2289;SDS011;1153;47.986;7.898;2023-02-22T00:06:44;2.20;;;0.87;;
2289;SDS011;1153;47.986;7.898;2023-02-22T00:09:09;4.63;;;1.13;;
2289;SDS011;1153;47.986;7.898;2023-02-22T00:11:34;1.00;;;0.70;;
2289;SDS011;1153;47.986;7.898;2023-02-22T00:14:00;0.80;;;0.57;;
2289;SDS011;1153;47.986;7.898;2023-02-22T00:16:26;1.57;;;0.90;;
2289;SDS011;1153;47.986;7.898;2023-02-22T00:18:52;3.47;;;0.70;;
2289;SDS011;1153;47.986;7.898;2023-02-22T00:21:17;2.43;;;1.30;;
2289;SDS011;1153;47.986;7.898;2023-02-22T00:23:44;1.40;;;0.80;;
2289;SDS011;1153;47.986;7.898;2023-02-22T00:26:28;1.40;;;0.90;;
2289;SDS011;1153;47.986;7.898;2023-02-22T00:28:57;3.23;;;0.67;;
2289;SDS011;1153;47.986;7.898;2023-02-22T00:31:22;1.17;;;0.60;;
2289;SDS011;1153;47.986;7.898;2023-02-22T00:33:47;0.93;;;0.57;;
2289;SDS011;1153;47.986;7.898;2023-02-22T00:36:12;1.03;;;0.60;;
2289;SDS011;1153;47.986;7.898;2023-02-22T00:38:38;1.10;;;0.73;;
2289;SDS011;1153;47.986;7.898;2023-02-22T00:41:04;1.70;;;1.17;;
2289;SDS011;1153;47.986;7.898;2023-02-22T00:43:29;1.57;;;0.70;;
2289;SDS011;1153;47.986;7.898;2023-02-22T00:45:54;1.73;;;0.87;;
2289;SDS011;1153;47.986;7.898;2023-02-22T00:48:21;1.67;;;0.80;;
2289;SDS011;1153;47.986;7.898;2023-02-22T00:50:46;0.90;;;0.70;;
2289;SDS011;1153;47.986;7.898;2023-02-22T00:53:13;1.90;;;0.77;;
2289;SDS011;1153;47.986;7.898;2023-02-22T00:55:38;1.00;;;0.80;;
2289;SDS011;1153;47.986;7.898;2023-02-22T00:58:04;1.30;;;0.60;;
2289;SDS011;1153;47.986;7.898;2023-02-22T01:00:31;3.37;;;0.67;;
2289;SDS011;1153;47.986;7.898;2023-02-22T01:02:57;1.83;;;0.97;;
2289;SDS011;1153;47.986;7.898;2023-02-22T01:05:23;1.20;;;0.70;;
2289;SDS011;1153;47.986;7.898;2023-02-22T01:07:49;1.10;;;0.60;;
2289;SDS011;1153;47.986;7.898;2023-02-22T01:10:14;0.80;;;0.60;;
2289;SDS011;1153;47.986;7.898;2023-02-22T01:12:41;1.00;;;0.80;;
2289;SDS011;1153;47.986;7.898;2023-02-22T01:15:07;1.07;;;0.60;;
2289;SDS011;1153;47.986;7.898;2023-02-22T01:17:36;1.20;;;0.70;;
2289;SDS011;1153;47.986;7.898;2023-02-22T01:20:03;0.73;;;0.50;;
2289;SDS011;1153;47.986;7.898;2023-02-22T01:22:34;1.43;;;1.03;;
2289;SDS011;1153;47.986;7.898;2023-02-22T01:24:59;1.27;;;0.60;;
2289;SDS011;1153;47.986;7.898;2023-02-22T01:27:24;0.90;;;0.60;;
2289;SDS011;1153;47.986;7.898;2023-02-22T01:29:49;1.07;;;0.63;;
2289;SDS011;1153;47.986;7.898;2023-02-22T01:32:14;0.83;;;0.50;;
2289;SDS011;1153;47.986;7.898;2023-02-22T01:34:40;0.80;;;0.50;;
2289;SDS011;1153;47.986;7.898;2023-02-22T01:37:06;0.80;;;0.50;;
2289;SDS011;1153;47.986;7.898;2023-02-22T01:39:31;1.00;;;0.60;;
2289;SDS011;1153;47.986;7.898;2023-02-22T01:41:57;1.13;;;0.80;;
2289;SDS011;1153;47.986;7.898;2023-02-22T01:46:54;0.83;;;0.60;;
2289;SDS011;1153;47.986;7.898;2023-02-22T01:49:19;1.40;;;0.70;;
2289;SDS011;1153;47.986;7.898;2023-02-22T01:51:47;0.90;;;0.53;;
2289;SDS011;1153;47.986;7.898;2023-02-22T01:54:17;2.23;;;0.50;;
2289;SDS011;1153;47.986;7.898;2023-02-22T01:56:48;2.20;;;1.03;;
2289;SDS011;1153;47.986;7.898;2023-02-22T01:59:14;1.43;;;0.70;;
2289;SDS011;1153;47.986;7.898;2023-02-22T02:01:41;1.77;;;0.70;;
2289;SDS011;1153;47.986;7.898;2023-02-22T02:04:11;2.73;;;0.97;;
2289;SDS011;1153;47.986;7.898;2023-02-22T02:06:36;1.00;;;0.60;;
2289;SDS011;1153;47.986;7.898;2023-02-22T02:11:27;0.80;;;0.50;;
2289;SDS011;1153;47.986;7.898;2023-02-22T02:13:55;1.00;;;0.53;;
2289;SDS011;1153;47.986;7.898;2023-02-22T02:16:21;1.10;;;0.70;;
2289;SDS011;1153;47.986;7.898;2023-02-22T02:18:47;0.93;;;0.50;;
2289;SDS011;1153;47.986;7.898;2023-02-22T02:32:07;1.00;;;0.53;;
2289;SDS011;1153;47.986;7.898;2023-02-22T02:34:39;0.90;;;0.60;;
2289;SDS011;1153;47.986;7.898;2023-02-22T02:37:12;2.10;;;0.83;;
2289;SDS011;1153;47.986;7.898;2023-02-22T02:39:47;1.57;;;0.60;;
2289;SDS011;1153;47.986;7.898;2023-02-22T02:42:15;1.20;;;0.70;;
2289;SDS011;1153;47.986;7.898;2023-02-22T02:44:50;2.00;;;0.50;;
2289;SDS011;1153;47.986;7.898;2023-02-22T02:47:19;1.07;;;0.60;;
2289;SDS011;1153;47.986;7.898;2023-02-22T02:49:47;0.97;;;0.60;;
2289;SDS011;1153;47.986;7.898;2023-02-22T02:52:15;0.93;;;0.57;;
2289;SDS011;1153;47.986;7.898;2023-02-22T02:54:41;3.97;;;0.70;;
2289;SDS011;1153;47.986;7.898;2023-02-22T02:57:07;0.70;;;0.50;;
2289;SDS011;1153;47.986;7.898;2023-02-22T02:59:35;3.03;;;0.80;;
2289;SDS011;1153;47.986;7.898;2023-02-22T03:14:41;1.90;;;0.60;;
2289;SDS011;1153;47.986;7.898;2023-02-22T03:17:14;1.00;;;0.63;;
2289;SDS011;1153;47.986;7.898;2023-02-22T03:19:44;1.00;;;0.60;;
2289;SDS011;1153;47.986;7.898;2023-02-22T03:22:32;3.67;;;0.60;;
2289;SDS011;1153;47.986;7.898;2023-02-22T03:25:06;45.40;;;14.70;;
2289;SDS011;1153;47.986;7.898;2023-02-22T03:27:48;3.23;;;1.37;;
2289;SDS011;1153;47.986;7.898;2023-02-22T03:30:21;1.17;;;0.70;;
2289;SDS011;1153;47.986;7.898;2023-02-22T03:32:48;3.10;;;0.70;;
2289;SDS011;1153;47.986;7.898;2023-02-22T03:35:17;2.10;;;1.20;;
2289;SDS011;1153;47.986;7.898;2023-02-22T03:37:44;2.90;;;0.83;;
2289;SDS011;1153;47.986;7.898;2023-02-22T03:40:11;1.77;;;0.97;;
2289;SDS011;1153;47.986;7.898;2023-02-22T03:42:38;1.20;;;1.03;;
2289;SDS011;1153;47.986;7.898;2023-02-22T03:45:04;1.30;;;1.00;;
2289;SDS011;1153;47.986;7.898;2023-02-22T03:47:38;1.10;;;0.80;;
2289;SDS011;1153;47.986;7.898;2023-02-22T03:50:14;1.47;;;0.70;;
2289;SDS011;1153;47.986;7.898;2023-02-22T03:52:40;0.97;;;0.60;;
2289;SDS011;1153;47.986;7.898;2023-02-22T03:55:07;1.30;;;0.77;;
2289;SDS011;1153;47.986;7.898;2023-02-22T03:57:35;0.97;;;0.70;;
2289;SDS011;1153;47.986;7.898;2023-02-22T04:00:03;1.20;;;0.73;;
2289;SDS011;1153;47.986;7.898;2023-02-22T04:02:31;1.93;;;0.70;;
2289;SDS011;1153;47.986;7.898;2023-02-22T04:04:56;1.20;;;1.10;;
2289;SDS011;1153;47.986;7.898;2023-02-22T04:07:21;1.30;;;1.13;;
2289;SDS011;1153;47.986;7.898;2023-02-22T04:09:46;1.37;;;1.27;;
2289;SDS011;1153;47.986;7.898;2023-02-22T04:12:11;1.30;;;1.00;;
2289;SDS011;1153;47.986;7.898;2023-02-22T04:14:37;0.90;;;0.80;;
2289;SDS011;1153;47.986;7.898;2023-02-22T04:17:02;1.10;;;0.90;;
2289;SDS011;1153;47.986;7.898;2023-02-22T04:19:27;1.40;;;0.90;;
2289;SDS011;1153;47.986;7.898;2023-02-22T04:21:52;1.30;;;1.03;;
2289;SDS011;1153;47.986;7.898;2023-02-22T04:24:18;3.93;;;1.50;;
2289;SDS011;1153;47.986;7.898;2023-02-22T04:26:43;3.37;;;1.47;;
2289;SDS011;1153;47.986;7.898;2023-02-22T04:29:08;1.70;;;1.40;;
2289;SDS011;1153;47.986;7.898;2023-02-22T04:31:34;1.10;;;0.90;;
2289;SDS011;1153;47.986;7.898;2023-02-22T04:33:59;1.23;;;1.13;;
2289;SDS011;1153;47.986;7.898;2023-02-22T04:36:25;1.87;;;0.97;;
2289;SDS011;1153;47.986;7.898;2023-02-22T04:38:51;1.30;;;1.00;;
2289;SDS011;1153;47.986;7.898;2023-02-22T04:41:16;2.20;;;1.10;;
2289;SDS011;1153;47.986;7.898;2023-02-22T04:43:42;3.13;;;1.00;;
2289;SDS011;1153;47.986;7.898;2023-02-22T04:46:07;2.30;;;1.30;;
2289;SDS011;1153;47.986;7.898;2023-02-22T04:48:33;2.40;;;1.10;;
2289;SDS011;1153;47.986;7.898;2023-02-22T04:50:58;1.43;;;1.27;;
2289;SDS011;1153;47.986;7.898;2023-02-22T04:53:23;2.50;;;1.73;;
2289;SDS011;1153;47.986;7.898;2023-02-22T04:55:48;1.17;;;1.07;;
2289;SDS011;1153;47.986;7.898;2023-02-22T04:58:13;1.23;;;0.90;;
2289;SDS011;1153;47.986;7.898;2023-02-22T05:00:39;3.37;;;0.90;;
2289;SDS011;1153;47.986;7.898;2023-02-22T05:03:04;1.20;;;0.90;;
2289;SDS011;1153;47.986;7.898;2023-02-22T05:05:29;1.50;;;1.30;;
2289;SDS011;1153;47.986;7.898;2023-02-22T05:07:54;2.20;;;1.50;;
2289;SDS011;1153;47.986;7.898;2023-02-22T05:10:19;1.70;;;1.10;;
2289;SDS011;1153;47.986;7.898;2023-02-22T05:12:45;3.87;;;1.10;;
2289;SDS011;1153;47.986;7.898;2023-02-22T05:15:13;1.60;;;1.33;;
2289;SDS011;1153;47.986;7.898;2023-02-22T05:17:39;1.57;;;1.00;;
2289;SDS011;1153;47.986;7.898;2023-02-22T05:20:04;2.10;;;0.90;;
2289;SDS011;1153;47.986;7.898;2023-02-22T05:22:32;1.33;;;1.00;;
2289;SDS011;1153;47.986;7.898;2023-02-22T05:24:57;3.53;;;1.03;;
2289;SDS011;1153;47.986;7.898;2023-02-22T05:27:22;1.83;;;1.40;;
2289;SDS011;1153;47.986;7.898;2023-02-22T05:29:48;3.00;;;1.37;;
2289;SDS011;1153;47.986;7.898;2023-02-22T05:32:13;3.23;;;1.27;;
2289;SDS011;1153;47.986;7.898;2023-02-22T05:34:38;2.20;;;1.33;;
2289;SDS011;1153;47.986;7.898;2023-02-22T05:37:03;1.53;;;0.90;;
2289;SDS011;1153;47.986;7.898;2023-02-22T05:39:29;2.30;;;1.30;;
2289;SDS011;1153;47.986;7.898;2023-02-22T05:41:54;1.20;;;1.00;;
2289;SDS011;1153;47.986;7.898;2023-02-22T05:44:19;1.60;;;1.13;;
2289;SDS011;1153;47.986;7.898;2023-02-22T05:46:45;2.03;;;1.27;;
2289;SDS011;1153;47.986;7.898;2023-02-22T05:49:10;1.23;;;0.70;;
2289;SDS011;1153;47.986;7.898;2023-02-22T05:51:35;1.63;;;1.00;;
2289;SDS011;1153;47.986;7.898;2023-02-22T05:54:00;2.00;;;1.20;;
2289;SDS011;1153;47.986;7.898;2023-02-22T05:56:27;4.37;;;1.17;;
2289;SDS011;1153;47.986;7.898;2023-02-22T05:58:52;2.00;;;1.90;;
2289;SDS011;1153;47.986;7.898;2023-02-22T06:01:17;2.60;;;1.00;;
2289;SDS011;1153;47.986;7.898;2023-02-22T06:03:45;4.70;;;1.20;;
2289;SDS011;1153;47.986;7.898;2023-02-22T06:06:11;3.60;;;1.40;;
2289;SDS011;1153;47.986;7.898;2023-02-22T06:08:36;2.33;;;1.97;;
2289;SDS011;1153;47.986;7.898;2023-02-22T06:11:01;2.87;;;2.00;;
2289;SDS011;1153;47.986;7.898;2023-02-22T06:13:26;3.30;;;1.30;;
2289;SDS011;1153;47.986;7.898;2023-02-22T06:15:51;3.00;;;2.07;;
2289;SDS011;1153;47.986;7.898;2023-02-22T06:18:17;2.77;;;2.00;;
2289;SDS011;1153;47.986;7.898;2023-02-22T06:20:42;3.57;;;1.23;;
2289;SDS011;1153;47.986;7.898;2023-02-22T06:23:07;1.40;;;1.20;;
2289;SDS011;1153;47.986;7.898;2023-02-22T06:25:32;2.80;;;1.53;;
2289;SDS011;1153;47.986;7.898;2023-02-22T06:27:58;2.40;;;1.43;;
2289;SDS011;1153;47.986;7.898;2023-02-22T06:30:24;1.57;;;1.47;;
2289;SDS011;1153;47.986;7.898;2023-02-22T06:32:50;3.23;;;1.33;;
2289;SDS011;1153;47.986;7.898;2023-02-22T06:35:15;3.80;;;1.23;;
2289;SDS011;1153;47.986;7.898;2023-02-22T06:37:41;4.27;;;1.60;;
2289;SDS011;1153;47.986;7.898;2023-02-22T06:40:06;4.30;;;2.27;;
2289;SDS011;1153;47.986;7.898;2023-02-22T06:42:32;2.90;;;2.13;;
2289;SDS011;1153;47.986;7.898;2023-02-22T06:44:57;3.73;;;1.80;;
2289;SDS011;1153;47.986;7.898;2023-02-22T06:47:22;4.90;;;2.60;;
2289;SDS011;1153;47.986;7.898;2023-02-22T06:49:51;4.43;;;1.77;;
2289;SDS011;1153;47.986;7.898;2023-02-22T06:52:16;6.20;;;1.90;;
2289;SDS011;1153;47.986;7.898;2023-02-22T06:54:41;2.90;;;1.80;;
2289;SDS011;1153;47.986;7.898;2023-02-22T06:57:07;2.10;;;1.63;;
2289;SDS011;1153;47.986;7.898;2023-02-22T06:59:34;4.40;;;2.50;;
2289;SDS011;1153;47.986;7.898;2023-02-22T07:01:59;8.90;;;2.83;;
2289;SDS011;1153;47.986;7.898;2023-02-22T07:04:24;10.60;;;3.00;;
2289;SDS011;1153;47.986;7.898;2023-02-22T07:06:49;4.67;;;3.47;;
2289;SDS011;1153;47.986;7.898;2023-02-22T07:09:15;11.23;;;2.80;;
2289;SDS011;1153;47.986;7.898;2023-02-22T07:11:41;2.30;;;1.80;;
2289;SDS011;1153;47.986;7.898;2023-02-22T07:14:06;1.93;;;1.80;;
2289;SDS011;1153;47.986;7.898;2023-02-22T07:16:31;2.60;;;2.27;;
2289;SDS011;1153;47.986;7.898;2023-02-22T07:18:57;4.10;;;1.97;;
2289;SDS011;1153;47.986;7.898;2023-02-22T07:21:24;5.27;;;2.30;;
2289;SDS011;1153;47.986;7.898;2023-02-22T07:23:53;2.10;;;1.90;;
2289;SDS011;1153;47.986;7.898;2023-02-22T07:26:18;3.00;;;2.60;;
2289;SDS011;1153;47.986;7.898;2023-02-22T07:28:44;3.50;;;3.20;;
2289;SDS011;1153;47.986;7.898;2023-02-22T07:31:09;6.10;;;3.90;;
2289;SDS011;1153;47.986;7.898;2023-02-22T07:33:35;5.10;;;3.50;;
2289;SDS011;1153;47.986;7.898;2023-02-22T07:36:00;9.43;;;4.43;;
2289;SDS011;1153;47.986;7.898;2023-02-22T07:38:25;4.93;;;3.33;;
2289;SDS011;1153;47.986;7.898;2023-02-22T07:40:50;4.80;;;3.57;;
2289;SDS011;1153;47.986;7.898;2023-02-22T07:43:17;3.20;;;2.80;;
2289;SDS011;1153;47.986;7.898;2023-02-22T07:45:42;2.40;;;2.07;;
2289;SDS011;1153;47.986;7.898;2023-02-22T07:48:08;4.40;;;3.33;;
2289;SDS011;1153;47.986;7.898;2023-02-22T07:50:33;2.70;;;2.50;;
2289;SDS011;1153;47.986;7.898;2023-02-22T07:53:00;4.70;;;2.60;;
2289;SDS011;1153;47.986;7.898;2023-02-22T07:55:26;3.67;;;3.33;;
2289;SDS011;1153;47.986;7.898;2023-02-22T07:57:52;4.80;;;3.27;;
2289;SDS011;1153;47.986;7.898;2023-02-22T08:00:22;3.63;;;3.00;;
2289;SDS011;1153;47.986;7.898;2023-02-22T08:02:47;7.10;;;4.73;;
2289;SDS011;1153;47.986;7.898;2023-02-22T08:05:13;6.37;;;3.23;;
2289;SDS011;1153;47.986;7.898;2023-02-22T08:07:38;7.73;;;4.07;;
2289;SDS011;1153;47.986;7.898;2023-02-22T08:10:04;6.77;;;4.80;;
2289;SDS011;1153;47.986;7.898;2023-02-22T08:12:32;11.50;;;4.10;;
2289;SDS011;1153;47.986;7.898;2023-02-22T08:14:58;4.77;;;4.20;;
2289;SDS011;1153;47.986;7.898;2023-02-22T08:17:23;12.50;;;5.20;;
2289;SDS011;1153;47.986;7.898;2023-02-22T08:19:48;6.53;;;4.80;;
2289;SDS011;1153;47.986;7.898;2023-02-22T08:22:13;4.97;;;4.67;;
2289;SDS011;1153;47.986;7.898;2023-02-22T08:24:38;3.93;;;3.63;;
2289;SDS011;1153;47.986;7.898;2023-02-22T08:27:04;5.10;;;3.57;;
2289;SDS011;1153;47.986;7.898;2023-02-22T08:29:29;5.00;;;3.47;;
2289;SDS011;1153;47.986;7.898;2023-02-22T08:31:57;4.30;;;3.97;;
2289;SDS011;1153;47.986;7.898;2023-02-22T08:34:23;4.33;;;3.90;;
2289;SDS011;1153;47.986;7.898;2023-02-22T08:36:48;5.20;;;3.70;;
2289;SDS011;1153;47.986;7.898;2023-02-22T08:39:13;4.17;;;3.90;;
2289;SDS011;1153;47.986;7.898;2023-02-22T08:41:39;3.57;;;3.37;;
2289;SDS011;1153;47.986;7.898;2023-02-22T08:44:04;3.60;;;3.37;;
2289;SDS011;1153;47.986;7.898;2023-02-22T08:46:29;3.77;;;3.47;;
2289;SDS011;1153;47.986;7.898;2023-02-22T08:48:54;4.10;;;2.97;;
2289;SDS011;1153;47.986;7.898;2023-02-22T08:51:19;7.20;;;2.93;;
2289;SDS011;1153;47.986;7.898;2023-02-22T08:53:45;3.47;;;2.83;;
2289;SDS011;1153;47.986;7.898;2023-02-22T08:56:10;2.40;;;2.17;;
2289;SDS011;1153;47.986;7.898;2023-02-22T08:58:35;1.93;;;1.83;;
2289;SDS011;1153;47.986;7.898;2023-02-22T09:01:00;6.50;;;3.10;;
2289;SDS011;1153;47.986;7.898;2023-02-22T09:03:26;2.80;;;2.60;;
2289;SDS011;1153;47.986;7.898;2023-02-22T09:05:51;3.03;;;2.83;;
2289;SDS011;1153;47.986;7.898;2023-02-22T09:08:16;2.90;;;2.70;;
2289;SDS011;1153;47.986;7.898;2023-02-22T09:10:41;4.33;;;3.50;;
2289;SDS011;1153;47.986;7.898;2023-02-22T09:13:06;4.00;;;2.90;;
2289;SDS011;1153;47.986;7.898;2023-02-22T09:15:32;4.33;;;2.40;;
2289;SDS011;1153;47.986;7.898;2023-02-22T09:17:59;5.43;;;2.93;;
2289;SDS011;1153;47.986;7.898;2023-02-22T09:20:25;3.17;;;2.40;;
2289;SDS011;1153;47.986;7.898;2023-02-22T09:22:50;4.93;;;2.47;;
2289;SDS011;1153;47.986;7.898;2023-02-22T09:25:16;2.80;;;2.20;;
2289;SDS011;1153;47.986;7.898;2023-02-22T09:27:42;3.77;;;2.07;;
2289;SDS011;1153;47.986;7.898;2023-02-22T09:30:08;4.73;;;2.37;;
2289;SDS011;1153;47.986;7.898;2023-02-22T09:32:36;2.20;;;2.00;;
2289;SDS011;1153;47.986;7.898;2023-02-22T09:35:01;2.40;;;2.20;;
2289;SDS011;1153;47.986;7.898;2023-02-22T09:37:27;4.33;;;3.67;;
2289;SDS011;1153;47.986;7.898;2023-02-22T09:39:52;8.93;;;5.60;;
2289;SDS011;1153;47.986;7.898;2023-02-22T09:42:26;6.20;;;5.70;;
2289;SDS011;1153;47.986;7.898;2023-02-22T09:47:36;10.13;;;6.77;;
2289;SDS011;1153;47.986;7.898;2023-02-22T09:50:06;11.30;;;7.67;;
2289;SDS011;1153;47.986;7.898;2023-02-22T09:52:58;28.77;;;8.50;;
2289;SDS011;1153;47.986;7.898;2023-02-22T09:55:32;9.27;;;8.10;;
2289;SDS011;1153;47.986;7.898;2023-02-22T09:58:00;15.90;;;9.77;;
2289;SDS011;1153;47.986;7.898;2023-02-22T10:00:36;21.97;;;11.67;;
2289;SDS011;1153;47.986;7.898;2023-02-22T10:08:52;18.70;;;12.53;;
2289;SDS011;1153;47.986;7.898;2023-02-22T10:11:34;23.40;;;12.23;;
2289;SDS011;1153;47.986;7.898;2023-02-22T10:16:35;18.10;;;10.70;;
2289;SDS011;1153;47.986;7.898;2023-02-22T10:19:23;15.30;;;11.00;;
2289;SDS011;1153;47.986;7.898;2023-02-22T10:27:11;16.17;;;12.20;;
2289;SDS011;1153;47.986;7.898;2023-02-22T10:29:39;15.97;;;11.13;;
2289;SDS011;1153;47.986;7.898;2023-02-22T10:32:07;18.50;;;10.40;;
2289;SDS011;1153;47.986;7.898;2023-02-22T10:34:40;15.30;;;10.20;;
2289;SDS011;1153;47.986;7.898;2023-02-22T10:39:44;12.00;;;10.50;;
2289;SDS011;1153;47.986;7.898;2023-02-22T10:42:12;15.10;;;10.40;;
2289;SDS011;1153;47.986;7.898;2023-02-22T10:44:37;14.80;;;10.50;;
2289;SDS011;1153;47.986;7.898;2023-02-22T10:47:07;13.50;;;10.50;;
2289;SDS011;1153;47.986;7.898;2023-02-22T10:49:41;11.30;;;10.13;;
2289;SDS011;1153;47.986;7.898;2023-02-22T10:55:02;18.57;;;11.07;;
2289;SDS011;1153;47.986;7.898;2023-02-22T10:57:31;13.03;;;10.37;;
2289;SDS011;1153;47.986;7.898;2023-02-22T10:59:57;12.07;;;9.50;;
2289;SDS011;1153;47.986;7.898;2023-02-22T11:02:37;10.87;;;9.37;;
2289;SDS011;1153;47.986;7.898;2023-02-22T11:05:03;12.37;;;11.03;;
2289;SDS011;1153;47.986;7.898;2023-02-22T11:07:30;9.93;;;8.93;;
2289;SDS011;1153;47.986;7.898;2023-02-22T11:10:03;11.73;;;10.10;;
2289;SDS011;1153;47.986;7.898;2023-02-22T11:14:53;10.80;;;9.70;;
2289;SDS011;1153;47.986;7.898;2023-02-22T11:17:40;15.93;;;11.13;;
2289;SDS011;1153;47.986;7.898;2023-02-22T11:20:05;12.80;;;10.97;;
2289;SDS011;1153;47.986;7.898;2023-02-22T11:22:36;14.70;;;9.93;;
2289;SDS011;1153;47.986;7.898;2023-02-22T11:25:05;12.70;;;9.70;;
2289;SDS011;1153;47.986;7.898;2023-02-22T11:32:50;16.13;;;10.83;;
2289;SDS011;1153;47.986;7.898;2023-02-22T11:35:18;10.80;;;8.60;;
2289;SDS011;1153;47.986;7.898;2023-02-22T11:37:44;9.00;;;8.27;;
2289;SDS011;1153;47.986;7.898;2023-02-22T11:40:16;11.23;;;8.10;;
2289;SDS011;1153;47.986;7.898;2023-02-22T11:42:43;9.50;;;8.73;;
2289;SDS011;1153;47.986;7.898;2023-02-22T11:45:11;10.87;;;9.37;;
2289;SDS011;1153;47.986;7.898;2023-02-22T11:50:24;13.13;;;11.33;;
2289;SDS011;1153;47.986;7.898;2023-02-22T11:52:53;13.80;;;9.90;;
2289;SDS011;1153;47.986;7.898;2023-02-22T11:55:23;15.80;;;11.97;;
2289;SDS011;1153;47.986;7.898;2023-02-22T11:58:14;17.80;;;12.80;;
2289;SDS011;1153;47.986;7.898;2023-02-22T12:00:51;16.30;;;11.40;;
2289;SDS011;1153;47.986;7.898;2023-02-22T12:03:26;15.07;;;11.43;;
2289;SDS011;1153;47.986;7.898;2023-02-22T12:06:01;11.03;;;9.93;;
2289;SDS011;1153;47.986;7.898;2023-02-22T12:11:02;10.63;;;9.60;;
2289;SDS011;1153;47.986;7.898;2023-02-22T12:18:55;20.33;;;11.33;;
2289;SDS011;1153;47.986;7.898;2023-02-22T12:21:25;18.20;;;10.57;;
2289;SDS011;1153;47.986;7.898;2023-02-22T12:26:37;13.03;;;10.00;;
2289;SDS011;1153;47.986;7.898;2023-02-22T12:31:32;11.57;;;10.37;;
2289;SDS011;1153;47.986;7.898;2023-02-22T12:36:28;15.43;;;11.63;;
2289;SDS011;1153;47.986;7.898;2023-02-22T12:38:58;11.93;;;10.03;;
2289;SDS011;1153;47.986;7.898;2023-02-22T12:41:29;11.57;;;10.37;;
2289;SDS011;1153;47.986;7.898;2023-02-22T12:46:23;14.80;;;10.20;;
2289;SDS011;1153;47.986;7.898;2023-02-22T12:48:52;12.23;;;10.23;;
2289;SDS011;1153;47.986;7.898;2023-02-22T12:54:39;13.07;;;11.20;;
2289;SDS011;1153;47.986;7.898;2023-02-22T12:56:40;12.50;;;10.63;;
2289;SDS011;1153;47.986;7.898;2023-02-22T13:01:43;11.63;;;10.33;;
2289;SDS011;1153;47.986;7.898;2023-02-22T13:04:09;12.63;;;10.60;;
2289;SDS011;1153;47.986;7.898;2023-02-22T13:11:48;16.83;;;11.50;;
2289;SDS011;1153;47.986;7.898;2023-02-22T13:19:45;13.00;;;10.43;;
2289;SDS011;1153;47.986;7.898;2023-02-22T13:22:17;11.77;;;9.40;;
2289;SDS011;1153;47.986;7.898;2023-02-22T13:27:24;15.53;;;11.30;;
2289;SDS011;1153;47.986;7.898;2023-02-22T13:29:51;15.33;;;11.10;;
2289;SDS011;1153;47.986;7.898;2023-02-22T13:37:40;13.50;;;10.67;;
2289;SDS011;1153;47.986;7.898;2023-02-22T13:40:24;16.00;;;10.43;;
2289;SDS011;1153;47.986;7.898;2023-02-22T13:43:19;12.43;;;10.17;;
2289;SDS011;1153;47.986;7.898;2023-02-22T13:46:01;14.83;;;11.13;;
2289;SDS011;1153;47.986;7.898;2023-02-22T13:56:08;11.13;;;10.03;;
2289;SDS011;1153;47.986;7.898;2023-02-22T13:58:45;11.70;;;9.93;;
2289;SDS011;1153;47.986;7.898;2023-02-22T14:01:11;12.17;;;10.47;;
2289;SDS011;1153;47.986;7.898;2023-02-22T14:04:13;14.13;;;10.20;;
2289;SDS011;1153;47.986;7.898;2023-02-22T14:06:41;14.80;;;11.07;;
2289;SDS011;1153;47.986;7.898;2023-02-22T14:09:08;14.87;;;10.97;;
2289;SDS011;1153;47.986;7.898;2023-02-22T14:16:27;14.43;;;12.50;;
2289;SDS011;1153;47.986;7.898;2023-02-22T14:19:12;19.43;;;11.20;;
2289;SDS011;1153;47.986;7.898;2023-02-22T14:24:25;13.53;;;10.40;;
2289;SDS011;1153;47.986;7.898;2023-02-22T14:26:55;12.27;;;10.80;;
2289;SDS011;1153;47.986;7.898;2023-02-22T14:29:22;16.43;;;11.93;;
2289;SDS011;1153;47.986;7.898;2023-02-22T14:34:18;11.57;;;10.17;;
2289;SDS011;1153;47.986;7.898;2023-02-22T14:41:48;12.00;;;10.80;;
2289;SDS011;1153;47.986;7.898;2023-02-22T14:44:15;11.63;;;10.43;;
2289;SDS011;1153;47.986;7.898;2023-02-22T14:46:44;15.47;;;11.57;;
2289;SDS011;1153;47.986;7.898;2023-02-22T14:49:12;15.00;;;11.70;;
2289;SDS011;1153;47.986;7.898;2023-02-22T14:51:43;11.87;;;10.67;;
2289;SDS011;1153;47.986;7.898;2023-02-22T14:54:26;12.23;;;10.77;;
2289;SDS011;1153;47.986;7.898;2023-02-22T15:01:45;13.33;;;11.10;;
2289;SDS011;1153;47.986;7.898;2023-02-22T15:04:16;14.10;;;10.77;;
2289;SDS011;1153;47.986;7.898;2023-02-22T15:06:41;14.00;;;11.73;;
2289;SDS011;1153;47.986;7.898;2023-02-22T15:09:10;13.70;;;10.87;;
2289;SDS011;1153;47.986;7.898;2023-02-22T15:11:35;13.50;;;10.97;;
2289;SDS011;1153;47.986;7.898;2023-02-22T15:14:15;14.77;;;11.70;;
2289;SDS011;1153;47.986;7.898;2023-02-22T15:16:45;13.30;;;11.20;;
2289;SDS011;1153;47.986;7.898;2023-02-22T15:19:10;14.63;;;11.30;;
2289;SDS011;1153;47.986;7.898;2023-02-22T15:21:36;14.70;;;11.17;;
2289;SDS011;1153;47.986;7.898;2023-02-22T15:24:09;18.57;;;11.60;;
2289;SDS011;1153;47.986;7.898;2023-02-22T15:26:43;15.20;;;11.40;;
2289;SDS011;1153;47.986;7.898;2023-02-22T15:29:55;16.93;;;11.73;;
2289;SDS011;1153;47.986;7.898;2023-02-22T15:31:57;17.37;;;10.10;;
2289;SDS011;1153;47.986;7.898;2023-02-22T15:34:25;14.30;;;11.13;;
2289;SDS011;1153;47.986;7.898;2023-02-22T15:36:51;16.97;;;12.60;;
2289;SDS011;1153;47.986;7.898;2023-02-22T15:39:24;13.13;;;11.17;;
2289;SDS011;1153;47.986;7.898;2023-02-22T15:42:10;15.20;;;12.27;;
2289;SDS011;1153;47.986;7.898;2023-02-22T15:44:43;15.90;;;11.50;;
2289;SDS011;1153;47.986;7.898;2023-02-22T15:47:15;18.60;;;12.03;;
2289;SDS011;1153;47.986;7.898;2023-02-22T15:49:40;19.10;;;12.43;;
2289;SDS011;1153;47.986;7.898;2023-02-22T15:52:07;17.90;;;13.70;;
2289;SDS011;1153;47.986;7.898;2023-02-22T15:54:37;22.60;;;13.07;;
2289;SDS011;1153;47.986;7.898;2023-02-22T15:57:02;19.90;;;13.60;;
2289;SDS011;1153;47.986;7.898;2023-02-22T15:59:27;21.17;;;13.90;;
2289;SDS011;1153;47.986;7.898;2023-02-22T16:01:57;18.00;;;12.93;;
2289;SDS011;1153;47.986;7.898;2023-02-22T16:04:24;16.53;;;12.73;;
2289;SDS011;1153;47.986;7.898;2023-02-22T16:06:52;15.90;;;14.00;;
2289;SDS011;1153;47.986;7.898;2023-02-22T16:09:19;15.23;;;11.00;;
2289;SDS011;1153;47.986;7.898;2023-02-22T16:11:47;14.00;;;11.40;;
2289;SDS011;1153;47.986;7.898;2023-02-22T16:19:40;17.20;;;11.10;;
2289;SDS011;1153;47.986;7.898;2023-02-22T16:22:06;13.77;;;12.17;;
2289;SDS011;1153;47.986;7.898;2023-02-22T16:24:46;24.23;;;12.70;;
2289;SDS011;1153;47.986;7.898;2023-02-22T16:27:17;17.10;;;12.10;;
2289;SDS011;1153;47.986;7.898;2023-02-22T16:29:43;14.73;;;11.17;;
2289;SDS011;1153;47.986;7.898;2023-02-22T16:32:09;16.83;;;10.87;;
2289;SDS011;1153;47.986;7.898;2023-02-22T16:34:35;27.67;;;10.37;;
2289;SDS011;1153;47.986;7.898;2023-02-22T16:37:00;16.20;;;10.30;;
2289;SDS011;1153;47.986;7.898;2023-02-22T16:39:26;16.33;;;11.23;;
2289;SDS011;1153;47.986;7.898;2023-02-22T16:41:53;16.30;;;10.40;;
2289;SDS011;1153;47.986;7.898;2023-02-22T16:44:19;13.70;;;10.13;;
2289;SDS011;1153;47.986;7.898;2023-02-22T16:46:44;19.67;;;10.73;;
2289;SDS011;1153;47.986;7.898;2023-02-22T16:49:09;20.63;;;11.57;;
2289;SDS011;1153;47.986;7.898;2023-02-22T16:51:55;17.93;;;10.73;;
2289;SDS011;1153;47.986;7.898;2023-02-22T16:54:29;17.07;;;10.20;;
2289;SDS011;1153;47.986;7.898;2023-02-22T16:56:58;25.77;;;10.40;;
2289;SDS011;1153;47.986;7.898;2023-02-22T16:59:26;21.67;;;12.53;;
2289;SDS011;1153;47.986;7.898;2023-02-22T17:01:51;16.90;;;12.47;;
2289;SDS011;1153;47.986;7.898;2023-02-22T17:04:22;21.10;;;11.83;;
2289;SDS011;1153;47.986;7.898;2023-02-22T17:06:52;19.40;;;11.93;;
2289;SDS011;1153;47.986;7.898;2023-02-22T17:09:18;22.70;;;12.53;;
2289;SDS011;1153;47.986;7.898;2023-02-22T17:11:44;23.67;;;11.70;;
2289;SDS011;1153;47.986;7.898;2023-02-22T17:14:10;20.57;;;13.00;;
2289;SDS011;1153;47.986;7.898;2023-02-22T17:16:40;25.03;;;11.10;;
2289;SDS011;1153;47.986;7.898;2023-02-22T17:19:13;20.67;;;13.63;;
2289;SDS011;1153;47.986;7.898;2023-02-22T17:21:39;26.50;;;13.20;;
2289;SDS011;1153;47.986;7.898;2023-02-22T17:24:04;24.13;;;13.00;;
2289;SDS011;1153;47.986;7.898;2023-02-22T17:26:29;18.47;;;13.30;;